Time;durP1;ratioP1;P1;durP2;ratioP2;P2;SDS_P1;SDS_P2;PMS_P1;PMS_P2;Temp;Humidity;BMP_temperature;BMP_pressure;BME280_temperature;BME280_humidity;BME280_pressure;Samples;Min_cycle;Max_cycle;Signal;HPM_P1;HPM_P2
2023/10/09 00:01:28;;;;;;;31.57;16.30;;;;;;;;;;5142917;27;20495;-63
2023/10/09 00:03:55;;;;;;;28.13;15.20;;;;;;;;;;5145294;27;20404;-63
2023/10/09 00:06:32;;;;;;;31.17;16.27;;;;;;;;;;5141172;27;20825;-63
2023/10/09 00:09:11;;;;;;;30.43;16.03;;;;;;;;;;5140475;27;20477;-63
2023/10/09 00:11:44;;;;;;;30.10;16.37;;;;;;;;;;5142315;27;20465;-63
2023/10/09 00:14:11;;;;;;;31.25;15.43;;;;;;;;;;5140552;27;20500;-63
2023/10/09 00:16:46;;;;;;;28.07;16.23;;;;;;;;;;5142638;27;20888;-63
2023/10/09 00:19:17;;;;;;;26.52;15.75;;;;;;;;;;5142791;27;20490;-63
2023/10/09 00:21:45;;;;;;;26.30;15.10;;;;;;;;;;5138635;27;20509;-63
2023/10/09 00:24:21;;;;;;;26.95;15.70;;;;;;;;;;5133897;27;20461;-64
2023/10/09 00:26:49;;;;;;;25.85;15.20;;;;;;;;;;5142930;27;20409;-63
2023/10/09 00:29:21;;;;;;;25.83;15.40;;;;;;;;;;5142052;27;20414;-63
2023/10/09 00:31:55;;;;;;;26.52;14.77;;;;;;;;;;5142622;27;20502;-63
2023/10/09 00:34:26;;;;;;;23.38;14.15;;;;;;;;;;5138387;27;20409;-63
2023/10/09 00:36:53;;;;;;;28.83;15.75;;;;;;;;;;5142634;27;20407;-63
2023/10/09 00:39:42;;;;;;;25.35;15.23;;;;;;;;;;5144551;27;20462;-63
2023/10/09 00:42:12;;;;;;;25.55;14.15;;;;;;;;;;5144456;27;20462;-64
2023/10/09 00:44:41;;;;;;;28.73;14.52;;;;;;;;;;5143145;27;20543;-63
2023/10/09 00:47:20;;;;;;;25.20;14.23;;;;;;;;;;5141672;27;20846;-63
2023/10/09 00:49:49;;;;;;;26.52;14.93;;;;;;;;;;5141282;27;20485;-63
2023/10/09 00:52:22;;;;;;;28.27;15.05;;;;;;;;;;5137649;27;20502;-63
2023/10/09 00:54:51;;;;;;;20.83;12.70;;;;;;;;;;5135009;27;20409;-62
2023/10/09 00:57:24;;;;;;;21.67;13.33;;;;;;;;;;5144443;27;20409;-62
2023/10/09 00:59:59;;;;;;;26.88;13.45;;;;;;;;;;5142661;27;20429;-63
2023/10/09 01:02:35;;;;;;;20.13;12.93;;;;;;;;;;5141469;27;20442;-63
2023/10/09 01:05:11;;;;;;;22.73;13.45;;;;;;;;;;5145455;27;20892;-63
2023/10/09 01:07:40;;;;;;;21.33;13.02;;;;;;;;;;5138251;27;20419;-62
2023/10/09 01:10:35;;;;;;;23.83;16.10;;;;;;;;;;5141816;27;20409;-63
2023/10/09 01:12:56;;;;;;;22.23;14.57;;;;;;;;;;5142711;27;20403;-63
2023/10/09 01:15:43;;;;;;;26.38;18.35;;;;;;;;;;5137126;27;20904;-63
2023/10/09 01:18:12;;;;;;;18.58;12.55;;;;;;;;;;5137563;27;20403;-63
2023/10/09 01:20:45;;;;;;;23.75;13.50;;;;;;;;;;5142205;27;20499;-63
2023/10/09 01:23:13;;;;;;;22.33;15.35;;;;;;;;;;5138188;27;20410;-63
2023/10/09 01:25:49;;;;;;;22.23;12.47;;;;;;;;;;5136401;27;20405;-63
2023/10/09 01:28:18;;;;;;;21.60;13.40;;;;;;;;;;5143613;27;20929;-63
2023/10/09 01:30:47;;;;;;;22.83;14.07;;;;;;;;;;5142453;27;20486;-63
2023/10/09 01:33:17;;;;;;;23.25;13.57;;;;;;;;;;5140605;27;20914;-63
2023/10/09 01:35:48;;;;;;;21.95;13.63;;;;;;;;;;5144328;27;20747;-62
2023/10/09 01:38:16;;;;;;;18.60;11.50;;;;;;;;;;5140640;27;20403;-63
2023/10/09 01:40:44;;;;;;;20.30;10.48;;;;;;;;;;5137523;27;20406;-63
2023/10/09 01:43:13;;;;;;;19.08;11.02;;;;;;;;;;5142400;27;20448;-63
2023/10/09 01:45:46;;;;;;;19.23;10.85;;;;;;;;;;5143223;27;20443;-63
2023/10/09 01:48:18;;;;;;;17.17;11.45;;;;;;;;;;5140527;27;20425;-63
2023/10/09 01:50:47;;;;;;;20.30;11.30;;;;;;;;;;5143336;27;20762;-63
2023/10/09 01:53:17;;;;;;;17.27;10.90;;;;;;;;;;5138505;27;20945;-63
2023/10/09 01:55:46;;;;;;;18.42;11.82;;;;;;;;;;5139715;27;20505;-63
2023/10/09 01:58:24;;;;;;;19.05;11.30;;;;;;;;;;5143560;27;20484;-63
2023/10/09 02:00:54;;;;;;;20.00;11.50;;;;;;;;;;5142879;27;20416;-63
2023/10/09 02:03:24;;;;;;;18.08;11.23;;;;;;;;;;5137697;27;20406;-63
2023/10/09 02:05:53;;;;;;;18.65;11.18;;;;;;;;;;5143990;27;20412;-63
2023/10/09 02:08:21;;;;;;;19.35;11.93;;;;;;;;;;5140254;27;20418;-64
2023/10/09 02:10:50;;;;;;;20.63;11.98;;;;;;;;;;5142163;27;20420;-61
2023/10/09 02:13:29;;;;;;;17.25;10.68;;;;;;;;;;5142861;27;20492;-62
2023/10/09 02:16:14;;;;;;;22.15;12.93;;;;;;;;;;5139264;27;20404;-62
2023/10/09 02:18:52;;;;;;;19.90;11.23;;;;;;;;;;5134576;27;20396;-62
2023/10/09 02:21:29;;;;;;;16.30;11.13;;;;;;;;;;5141169;27;20545;-62
2023/10/09 02:23:57;;;;;;;18.17;10.75;;;;;;;;;;5141776;27;20442;-62
2023/10/09 02:26:28;;;;;;;18.00;11.80;;;;;;;;;;5140471;27;20576;-63
2023/10/09 02:29:00;;;;;;;18.15;10.60;;;;;;;;;;5144375;27;20514;-63
2023/10/09 02:31:35;;;;;;;18.40;11.83;;;;;;;;;;5140431;27;20880;-63
2023/10/09 02:34:05;;;;;;;20.83;11.73;;;;;;;;;;5144357;27;20485;-63
2023/10/09 02:36:32;;;;;;;20.13;11.50;;;;;;;;;;5140842;27;20607;-63
2023/10/09 02:38:59;;;;;;;18.58;13.50;;;;;;;;;;5144999;27;20397;-63
2023/10/09 02:41:32;;;;;;;17.98;11.88;;;;;;;;;;5146721;27;20396;-63
2023/10/09 02:44:10;;;;;;;17.30;11.30;;;;;;;;;;5142381;27;20405;-63
2023/10/09 02:46:39;;;;;;;17.27;11.48;;;;;;;;;;5143766;27;20403;-63
2023/10/09 02:49:09;;;;;;;19.63;11.23;;;;;;;;;;5145301;27;20424;-63
2023/10/09 02:51:41;;;;;;;17.77;11.20;;;;;;;;;;5148358;27;20457;-63
2023/10/09 02:54:18;;;;;;;18.20;11.02;;;;;;;;;;5138526;27;20404;-63
2023/10/09 02:56:47;;;;;;;20.38;11.25;;;;;;;;;;5143194;27;20929;-63
2023/10/09 02:59:14;;;;;;;21.87;11.40;;;;;;;;;;5144779;27;20880;-63
2023/10/09 03:01:42;;;;;;;18.38;11.13;;;;;;;;;;5143531;27;20406;-63
2023/10/09 03:04:14;;;;;;;18.30;11.05;;;;;;;;;;5143108;27;20410;-63
2023/10/09 03:06:45;;;;;;;19.95;12.13;;;;;;;;;;5144444;27;20410;-63
2023/10/09 03:09:17;;;;;;;16.97;11.40;;;;;;;;;;5146163;27;20416;-63
2023/10/09 03:11:46;;;;;;;21.48;10.57;;;;;;;;;;5145208;27;20425;-63
2023/10/09 03:14:14;;;;;;;17.90;12.57;;;;;;;;;;5143226;27;20412;-63
2023/10/09 03:16:41;;;;;;;19.20;12.25;;;;;;;;;;5145010;27;20397;-63
2023/10/09 03:19:11;;;;;;;22.73;14.25;;;;;;;;;;5145400;27;20732;-63
2023/10/09 03:21:38;;;;;;;25.52;17.10;;;;;;;;;;5143094;27;20406;-63
2023/10/09 03:24:06;;;;;;;22.65;15.93;;;;;;;;;;5136258;27;20408;-63
2023/10/09 03:26:33;;;;;;;24.92;20.38;;;;;;;;;;5142159;27;20825;-63
2023/10/09 03:29:01;;;;;;;17.70;11.87;;;;;;;;;;5142477;27;20826;-63
2023/10/09 03:31:31;;;;;;;24.70;19.42;;;;;;;;;;5143934;27;20400;-63
2023/10/09 03:33:58;;;;;;;27.13;22.15;;;;;;;;;;5145628;27;20412;-63
2023/10/09 03:36:26;;;;;;;26.17;20.25;;;;;;;;;;5139004;27;20447;-63
2023/10/09 03:38:54;;;;;;;23.75;15.68;;;;;;;;;;5144041;27;20436;-63
2023/10/09 03:41:21;;;;;;;23.58;17.30;;;;;;;;;;5145549;27;20405;-63
2023/10/09 03:43:49;;;;;;;19.23;13.02;;;;;;;;;;5138996;27;20459;-63
2023/10/09 03:46:22;;;;;;;20.35;14.27;;;;;;;;;;5143668;27;20491;-63
2023/10/09 03:48:51;;;;;;;21.23;13.75;;;;;;;;;;5145419;27;20446;-63
2023/10/09 03:51:21;;;;;;;17.73;11.85;;;;;;;;;;5143830;27;20410;-63
2023/10/09 03:53:49;;;;;;;19.80;13.82;;;;;;;;;;5132971;27;20451;-63
2023/10/09 03:56:17;;;;;;;22.55;14.00;;;;;;;;;;5145227;27;20402;-63
2023/10/09 03:58:45;;;;;;;20.48;12.00;;;;;;;;;;5141737;27;20406;-63
2023/10/09 04:01:17;;;;;;;19.92;11.52;;;;;;;;;;5145072;27;20448;-63
2023/10/09 04:03:44;;;;;;;21.10;14.43;;;;;;;;;;5141199;27;20405;-63
2023/10/09 04:06:13;;;;;;;23.23;15.10;;;;;;;;;;5144668;27;20568;-63
2023/10/09 04:08:47;;;;;;;18.02;9.85;;;;;;;;;;5141768;27;20455;-63
2023/10/09 04:11:17;;;;;;;17.48;11.55;;;;;;;;;;5142986;27;20485;-63
2023/10/09 04:13:45;;;;;;;16.60;11.18;;;;;;;;;;5145060;27;20492;-63
2023/10/09 04:16:33;;;;;;;20.33;11.07;;;;;;;;;;5143112;27;20426;-63
2023/10/09 04:19:05;;;;;;;17.35;10.68;;;;;;;;;;5137706;27;20420;-63
2023/10/09 04:21:36;;;;;;;15.77;10.13;;;;;;;;;;5139010;27;20411;-63
2023/10/09 04:24:22;;;;;;;16.80;10.10;;;;;;;;;;5137543;27;20458;-64
2023/10/09 04:26:54;;;;;;;15.73;10.02;;;;;;;;;;5137341;27;20457;-63
2023/10/09 04:29:26;;;;;;;14.75;9.35;;;;;;;;;;5135142;27;20904;-63
2023/10/09 04:31:54;;;;;;;15.57;10.02;;;;;;;;;;5139244;27;20463;-63
2023/10/09 04:34:28;;;;;;;15.55;9.73;;;;;;;;;;5133576;27;20413;-63
2023/10/09 04:37:01;;;;;;;17.38;10.07;;;;;;;;;;5134569;27;20740;-63
2023/10/09 04:39:47;;;;;;;15.18;9.70;;;;;;;;;;5136669;27;20403;-63
2023/10/09 04:42:35;;;;;;;16.23;9.32;;;;;;;;;;5137066;27;20402;-64
2023/10/09 04:47:57;;;;;;;16.75;10.05;;;;;;;;;;5091519;27;20389;-63
2023/10/09 04:53:25;;;;;;;14.98;9.20;;;;;;;;;;5109746;27;20410;-63
2023/10/09 04:55:55;;;;;;;14.13;9.38;;;;;;;;;;5137780;27;20405;-63
2023/10/09 04:58:25;;;;;;;19.05;12.70;;;;;;;;;;5144173;27;20397;-63
2023/10/09 05:01:12;;;;;;;20.00;14.73;;;;;;;;;;5141905;27;20714;-63
2023/10/09 05:03:45;;;;;;;17.73;13.40;;;;;;;;;;5139486;27;20916;-63
2023/10/09 05:06:32;;;;;;;15.25;10.10;;;;;;;;;;5141041;27;20406;-63
2023/10/09 05:09:08;;;;;;;19.50;12.13;;;;;;;;;;5137437;27;20822;-63
2023/10/09 05:11:53;;;;;;;19.58;10.23;;;;;;;;;;5142123;27;20441;-63
2023/10/09 05:14:26;;;;;;;13.80;10.27;;;;;;;;;;5140440;27;20876;-63
2023/10/09 05:17:01;;;;;;;17.05;9.90;;;;;;;;;;5136440;27;20403;-63
2023/10/09 05:19:41;;;;;;;19.58;14.15;;;;;;;;;;5141332;27;20406;-63
2023/10/09 05:22:16;;;;;;;21.48;14.68;;;;;;;;;;5140255;27;20398;-63
2023/10/09 05:24:45;;;;;;;19.10;15.63;;;;;;;;;;5134101;27;20441;-63
2023/10/09 05:27:45;;;;;;;22.50;14.60;;;;;;;;;;5142284;27;20425;-63
2023/10/09 05:30:24;;;;;;;24.10;18.17;;;;;;;;;;5142162;27;20489;-63
2023/10/09 05:32:55;;;;;;;20.63;14.57;;;;;;;;;;5143522;27;20480;-63
2023/10/09 05:35:29;;;;;;;22.92;17.52;;;;;;;;;;5137579;27;20401;-63
2023/10/09 05:38:02;;;;;;;20.80;14.65;;;;;;;;;;5140704;27;20425;-63
2023/10/09 05:40:31;;;;;;;19.48;12.82;;;;;;;;;;5138217;27;20398;-63
2023/10/09 05:43:02;;;;;;;20.58;14.32;;;;;;;;;;5140579;27;20415;-63
2023/10/09 05:51:41;;;;;;;19.80;14.50;;;;;;;;;;5139384;27;20417;-63
2023/10/09 05:54:15;;;;;;;19.20;15.23;;;;;;;;;;5132782;27;20397;-63
2023/10/09 06:05:19;;;;;;;23.27;14.65;;;;;;;;;;5138533;27;22394;-63
2023/10/09 06:08:04;;;;;;;22.23;16.58;;;;;;;;;;5139110;27;20408;-63
2023/10/09 06:10:39;;;;;;;21.92;16.70;;;;;;;;;;5138920;27;20418;-63
2023/10/09 06:13:30;;;;;;;22.73;16.33;;;;;;;;;;5142132;27;20583;-64
2023/10/09 06:16:19;;;;;;;23.25;17.63;;;;;;;;;;5129739;27;20888;-63
2023/10/09 06:18:53;;;;;;;22.93;16.37;;;;;;;;;;5129605;27;20485;-63
2023/10/09 06:24:14;;;;;;;22.33;17.27;;;;;;;;;;5135252;27;20451;-63
2023/10/09 06:26:51;;;;;;;21.67;15.93;;;;;;;;;;5132318;27;20411;-63
2023/10/09 06:29:35;;;;;;;20.37;13.40;;;;;;;;;;5136660;27;20503;-63
2023/10/09 06:35:15;;;;;;;17.88;12.18;;;;;;;;;;5080114;28;20346;-63
2023/10/09 06:38:21;;;;;;;21.73;14.10;;;;;;;;;;5071795;28;20540;-63
2023/10/09 06:43:26;;;;;;;20.93;15.83;;;;;;;;;;5048522;28;20461;-63
2023/10/09 06:45:55;;;;;;;23.75;16.70;;;;;;;;;;5050876;28;20473;-63
2023/10/09 06:51:34;;;;;;;22.48;15.10;;;;;;;;;;5048921;28;20394;-63
2023/10/09 06:54:05;;;;;;;15.00;10.23;;;;;;;;;;5054297;28;20425;-63
2023/10/09 06:59:21;;;;;;;17.13;11.07;;;;;;;;;;5050312;28;20405;-63
2023/10/09 07:02:11;;;;;;;18.63;11.88;;;;;;;;;;5053995;28;20498;-63
2023/10/09 07:04:47;;;;;;;22.52;15.95;;;;;;;;;;5049314;28;20477;-64
2023/10/09 07:07:16;;;;;;;17.88;12.13;;;;;;;;;;5051331;28;20468;-66
2023/10/09 07:09:42;;;;;;;22.07;14.63;;;;;;;;;;5054508;28;20892;-66
2023/10/09 07:12:14;;;;;;;22.10;13.57;;;;;;;;;;5055081;28;20505;-66
2023/10/09 07:20:12;;;;;;;28.83;18.55;;;;;;;;;;5050559;28;20478;-65
2023/10/09 07:22:52;;;;;;;23.98;14.80;;;;;;;;;;5050784;28;20782;-65
2023/10/09 07:25:27;;;;;;;25.77;15.77;;;;;;;;;;5055964;28;20831;-67
2023/10/09 07:27:56;;;;;;;24.83;15.27;;;;;;;;;;5054336;28;20449;-67
2023/10/09 07:30:38;;;;;;;27.27;14.80;;;;;;;;;;5054227;28;20498;-69
2023/10/09 07:33:16;;;;;;;25.40;17.03;;;;;;;;;;5059806;28;20982;-66
2023/10/09 07:35:47;;;;;;;25.13;14.80;;;;;;;;;;5072439;28;20844;-66
2023/10/09 07:38:19;;;;;;;24.58;15.77;;;;;;;;;;5074650;28;20433;-66
2023/10/09 07:40:55;;;;;;;21.30;12.77;;;;;;;;;;5071690;28;20499;-66
2023/10/09 07:43:26;;;;;;;18.85;11.73;;;;;;;;;;5074241;28;20416;-65
2023/10/09 07:48:48;;;;;;;18.15;12.30;;;;;;;;;;5057560;28;20914;-65
2023/10/09 07:51:14;;;;;;;20.80;12.20;;;;;;;;;;5060581;28;20428;-64
2023/10/09 07:53:44;;;;;;;28.23;19.43;;;;;;;;;;5061236;28;20430;-65
2023/10/09 07:56:13;;;;;;;24.63;17.43;;;;;;;;;;5063515;28;20865;-66
2023/10/09 07:58:46;;;;;;;23.97;16.10;;;;;;;;;;5057204;28;20416;-67
2023/10/09 08:01:22;;;;;;;24.85;18.38;;;;;;;;;;5061003;28;20409;-66
2023/10/09 08:03:57;;;;;;;22.38;14.02;;;;;;;;;;5057207;28;20429;-65
2023/10/09 08:06:39;;;;;;;29.23;19.45;;;;;;;;;;5060332;28;20876;-66
2023/10/09 08:09:45;;;;;;;21.33;15.48;;;;;;;;;;5060957;28;20405;-65
2023/10/09 08:12:39;;;;;;;18.92;12.38;;;;;;;;;;5059507;28;20422;-64
2023/10/09 08:15:20;;;;;;;18.17;11.38;;;;;;;;;;5060046;28;20427;-64
2023/10/09 08:17:50;;;;;;;21.00;11.70;;;;;;;;;;5060448;28;20456;-63
2023/10/09 08:20:24;;;;;;;20.92;12.10;;;;;;;;;;5058960;28;20413;-65
2023/10/09 08:22:52;;;;;;;16.45;11.60;;;;;;;;;;5060494;28;20412;-64
2023/10/09 08:25:31;;;;;;;16.48;10.75;;;;;;;;;;5062940;28;20477;-65
2023/10/09 08:28:29;;;;;;;19.98;11.68;;;;;;;;;;5062690;28;20412;-64
2023/10/09 08:31:03;;;;;;;18.30;10.90;;;;;;;;;;5060430;28;20391;-65
2023/10/09 08:33:40;;;;;;;20.40;11.45;;;;;;;;;;5060981;28;20431;-66
2023/10/09 08:36:09;;;;;;;21.80;11.88;;;;;;;;;;5055064;28;20452;-64
2023/10/09 08:38:36;;;;;;;16.90;11.93;;;;;;;;;;5061308;28;20412;-66
2023/10/09 08:41:18;;;;;;;19.60;12.10;;;;;;;;;;5056979;28;20870;-65
2023/10/09 08:43:50;;;;;;;20.25;11.80;;;;;;;;;;5059702;28;20467;-65
2023/10/09 08:46:18;;;;;;;19.20;12.40;;;;;;;;;;5061471;28;20544;-65
2023/10/09 08:48:46;;;;;;;17.73;11.73;;;;;;;;;;5062199;28;20757;-64
2023/10/09 08:51:14;;;;;;;21.17;12.18;;;;;;;;;;5054493;28;20777;-64
2023/10/09 08:53:42;;;;;;;17.75;11.70;;;;;;;;;;5059355;28;20423;-65
2023/10/09 08:56:11;;;;;;;19.85;12.68;;;;;;;;;;5061185;28;20503;-65
2023/10/09 08:58:38;;;;;;;17.60;11.93;;;;;;;;;;5058756;28;20416;-64
2023/10/09 09:01:05;;;;;;;26.42;17.13;;;;;;;;;;5059819;28;20415;-64
2023/10/09 09:03:39;;;;;;;24.52;16.40;;;;;;;;;;5061808;28;20430;-66
2023/10/09 09:06:06;;;;;;;28.13;18.67;;;;;;;;;;5060508;28;20413;-64
2023/10/09 09:08:36;;;;;;;23.90;15.98;;;;;;;;;;5059622;28;20417;-64
2023/10/09 09:11:11;;;;;;;24.88;19.98;;;;;;;;;;5055288;28;20409;-64
2023/10/09 09:13:41;;;;;;;28.30;17.48;;;;;;;;;;5059040;28;20560;-65
2023/10/09 09:16:14;;;;;;;29.50;18.67;;;;;;;;;;5054801;28;20436;-64
2023/10/09 09:18:51;;;;;;;25.03;19.70;;;;;;;;;;5059224;28;20488;-64
2023/10/09 09:21:22;;;;;;;30.15;19.70;;;;;;;;;;5056918;28;20984;-64
2023/10/09 09:23:57;;;;;;;28.42;19.35;;;;;;;;;;5059550;28;20891;-65
2023/10/09 09:26:37;;;;;;;23.75;15.85;;;;;;;;;;5060159;28;20412;-66
2023/10/09 09:29:07;;;;;;;26.77;16.63;;;;;;;;;;5056490;28;20866;-64
2023/10/09 09:31:37;;;;;;;32.03;18.55;;;;;;;;;;5058193;28;20417;-65
2023/10/09 09:34:12;;;;;;;22.95;15.60;;;;;;;;;;5052298;28;20483;-65
2023/10/09 09:36:53;;;;;;;23.83;15.75;;;;;;;;;;5053643;28;20417;-65
2023/10/09 09:39:26;;;;;;;23.35;16.55;;;;;;;;;;5062339;28;20424;-66
2023/10/09 09:41:53;;;;;;;26.63;19.30;;;;;;;;;;5063370;28;20475;-65
2023/10/09 09:44:26;;;;;;;25.55;18.02;;;;;;;;;;5061922;28;20421;-67
2023/10/09 09:46:55;;;;;;;23.88;18.23;;;;;;;;;;5055813;28;20415;-67
2023/10/09 09:49:22;;;;;;;25.35;16.55;;;;;;;;;;5060266;28;20422;-66
2023/10/09 09:51:49;;;;;;;23.67;18.73;;;;;;;;;;5051750;28;20417;-66
2023/10/09 09:54:16;;;;;;;28.88;23.13;;;;;;;;;;5058047;28;20493;-67
2023/10/09 09:56:50;;;;;;;16.23;10.93;;;;;;;;;;5055892;28;20872;-66
2023/10/09 09:59:21;;;;;;;18.85;11.32;;;;;;;;;;5060982;28;20407;-66
2023/10/09 10:01:56;;;;;;;16.80;10.68;;;;;;;;;;5055660;28;20826;-66
2023/10/09 10:04:25;;;;;;;21.63;14.55;;;;;;;;;;5058076;28;20474;-66
2023/10/09 10:06:55;;;;;;;24.80;17.40;;;;;;;;;;5060178;28;20411;-65
2023/10/09 10:09:38;;;;;;;24.00;19.50;;;;;;;;;;5059496;28;20419;-65
2023/10/09 10:12:09;;;;;;;25.63;19.30;;;;;;;;;;5055716;28;20514;-64
2023/10/09 10:14:52;;;;;;;27.73;24.50;;;;;;;;;;5057740;28;20926;-65
2023/10/09 10:17:21;;;;;;;32.05;28.65;;;;;;;;;;5057744;28;20431;-65
2023/10/09 10:20:01;;;;;;;20.42;14.13;;;;;;;;;;5059837;28;20415;-68
2023/10/09 10:22:29;;;;;;;23.30;17.85;;;;;;;;;;5053812;28;20485;-65
2023/10/09 10:24:57;;;;;;;18.42;11.27;;;;;;;;;;5058632;28;20416;-66
2023/10/09 10:27:27;;;;;;;34.03;30.92;;;;;;;;;;5060413;28;20416;-65
2023/10/09 10:30:13;;;;;;;20.83;15.43;;;;;;;;;;5053694;28;20447;-66
2023/10/09 10:32:58;;;;;;;24.58;16.98;;;;;;;;;;5054576;28;20413;-68
2023/10/09 10:35:39;;;;;;;26.60;20.30;;;;;;;;;;5059872;28;21034;-67
2023/10/09 10:38:23;;;;;;;24.27;18.92;;;;;;;;;;5060118;28;20410;-67
2023/10/09 10:40:57;;;;;;;23.75;16.05;;;;;;;;;;5060113;28;20426;-66
2023/10/09 10:43:32;;;;;;;28.55;20.77;;;;;;;;;;5058876;28;20421;-66
2023/10/09 10:46:04;;;;;;;30.75;27.48;;;;;;;;;;5052774;28;20757;-65
2023/10/09 10:48:38;;;;;;;21.57;14.90;;;;;;;;;;5058649;28;20421;-64
2023/10/09 10:51:05;;;;;;;26.92;18.95;;;;;;;;;;5054290;28;20401;-66
2023/10/09 10:53:47;;;;;;;25.55;17.52;;;;;;;;;;5058688;28;20434;-63
2023/10/09 10:56:18;;;;;;;27.00;20.85;;;;;;;;;;5055879;28;20777;-64
2023/10/09 10:59:11;;;;;;;29.00;24.42;;;;;;;;;;5057246;28;20757;-65
2023/10/09 11:04:41;;;;;;;23.27;16.40;;;;;;;;;;5046352;28;20404;-64
2023/10/09 11:07:09;;;;;;;28.08;22.75;;;;;;;;;;5052551;28;20432;-66
2023/10/09 11:09:58;;;;;;;29.45;26.27;;;;;;;;;;5055881;28;20477;-65
2023/10/09 11:12:25;;;;;;;24.98;18.88;;;;;;;;;;5059821;28;20903;-65
2023/10/09 11:15:07;;;;;;;26.77;20.73;;;;;;;;;;5057148;28;20425;-64
2023/10/09 11:17:35;;;;;;;25.40;21.02;;;;;;;;;;5058092;28;20414;-65
2023/10/09 11:20:22;;;;;;;27.90;24.92;;;;;;;;;;5057799;28;20420;-64
2023/10/09 11:23:11;;;;;;;30.58;25.48;;;;;;;;;;5062389;28;20953;-64
2023/10/09 11:25:38;;;;;;;27.63;21.90;;;;;;;;;;5057604;28;20406;-64
2023/10/09 11:28:27;;;;;;;34.70;31.23;;;;;;;;;;5063784;28;20421;-65
2023/10/09 11:30:55;;;;;;;28.00;24.70;;;;;;;;;;5062231;28;20878;-64
2023/10/09 11:33:29;;;;;;;34.17;30.60;;;;;;;;;;5062321;28;20749;-64
2023/10/09 11:35:57;;;;;;;26.23;22.50;;;;;;;;;;5063034;28;20913;-64
2023/10/09 11:38:25;;;;;;;29.00;25.58;;;;;;;;;;5065742;28;20953;-64
2023/10/09 11:41:18;;;;;;;40.88;37.22;;;;;;;;;;5061492;28;20455;-64
2023/10/09 11:43:52;;;;;;;35.70;32.07;;;;;;;;;;5061337;28;20558;-64
2023/10/09 11:54:46;;;;;;;37.70;34.10;;;;;;;;;;5028424;28;20427;-67
2023/10/09 11:57:13;;;;;;;44.03;40.27;;;;;;;;;;5057569;28;20429;-65
2023/10/09 11:59:41;;;;;;;47.58;42.78;;;;;;;;;;5057636;28;20419;-65
2023/10/09 12:02:11;;;;;;;40.15;36.25;;;;;;;;;;5060137;28;20478;-64
2023/10/09 12:04:41;;;;;;;65.60;60.15;;;;;;;;;;5060118;28;20463;-67
2023/10/09 12:07:10;;;;;;;61.45;56.53;;;;;;;;;;5060540;28;20417;-67
2023/10/09 12:09:37;;;;;;;49.13;44.10;;;;;;;;;;5061051;28;20417;-67
2023/10/09 12:12:05;;;;;;;44.17;39.92;;;;;;;;;;5058789;28;21679;-65
2023/10/09 12:14:33;;;;;;;58.03;53.13;;;;;;;;;;5054217;28;20501;-65
2023/10/09 12:17:05;;;;;;;50.10;45.87;;;;;;;;;;5056724;28;20482;-66
2023/10/09 12:19:32;;;;;;;21.40;13.48;;;;;;;;;;5055997;28;20400;-66
2023/10/09 12:22:00;;;;;;;29.25;17.40;;;;;;;;;;5053951;28;20493;-66
2023/10/09 12:24:30;;;;;;;24.90;19.00;;;;;;;;;;5058939;28;20414;-66
2023/10/09 12:26:57;;;;;;;29.52;26.55;;;;;;;;;;5057255;28;20907;-66
2023/10/09 12:29:24;;;;;;;26.70;22.47;;;;;;;;;;5059780;28;20471;-69
2023/10/09 12:31:57;;;;;;;53.38;46.22;;;;;;;;;;5058355;28;20916;-66
2023/10/09 12:34:26;;;;;;;43.92;39.85;;;;;;;;;;5059860;28;20504;-66
2023/10/09 12:36:53;;;;;;;36.90;33.50;;;;;;;;;;5059452;28;20418;-67
2023/10/09 12:39:21;;;;;;;57.95;53.22;;;;;;;;;;5061475;28;20415;-65
2023/10/09 12:41:53;;;;;;;48.85;44.22;;;;;;;;;;5059320;28;20922;-65
2023/10/09 12:44:20;;;;;;;48.40;44.35;;;;;;;;;;5059507;28;20823;-63
2023/10/09 12:46:52;;;;;;;56.80;52.20;;;;;;;;;;5059240;28;20480;-63
2023/10/09 12:49:24;;;;;;;55.25;50.95;;;;;;;;;;5059745;28;20414;-63
2023/10/09 12:51:51;;;;;;;22.17;19.33;;;;;;;;;;5055902;28;20890;-64
2023/10/09 12:54:20;;;;;;;17.55;12.82;;;;;;;;;;5061988;28;20413;-64
2023/10/09 12:56:48;;;;;;;26.55;18.55;;;;;;;;;;5053246;28;20499;-63
2023/10/09 12:59:19;;;;;;;22.48;15.50;;;;;;;;;;5053931;28;20443;-63
2023/10/09 13:01:52;;;;;;;23.73;20.55;;;;;;;;;;5060591;28;20448;-64
2023/10/09 13:04:22;;;;;;;24.50;19.33;;;;;;;;;;5057800;28;20472;-63
2023/10/09 13:06:52;;;;;;;29.03;23.77;;;;;;;;;;5062571;28;20417;-64
2023/10/09 13:09:24;;;;;;;34.63;30.92;;;;;;;;;;5060124;28;20413;-63
2023/10/09 13:11:52;;;;;;;84.35;78.57;;;;;;;;;;5062555;28;20504;-64
2023/10/09 13:14:21;;;;;;;95.97;89.13;;;;;;;;;;5062494;28;20462;-64
2023/10/09 13:16:50;;;;;;;31.85;28.92;;;;;;;;;;5060290;28;20509;-64
2023/10/09 13:19:17;;;;;;;74.90;69.25;;;;;;;;;;5059767;28;20792;-64
2023/10/09 13:21:45;;;;;;;72.97;67.60;;;;;;;;;;5062511;28;20476;-64
2023/10/09 13:24:15;;;;;;;80.35;74.55;;;;;;;;;;5059982;28;20885;-64
2023/10/09 13:26:44;;;;;;;83.40;77.30;;;;;;;;;;5059215;28;20557;-64
2023/10/09 13:29:12;;;;;;;57.58;52.47;;;;;;;;;;5056544;28;20421;-64
2023/10/09 13:31:46;;;;;;;66.10;61.03;;;;;;;;;;5060708;28;20417;-64
2023/10/09 13:34:15;;;;;;;32.67;26.40;;;;;;;;;;5054986;28;20475;-64
2023/10/09 13:36:49;;;;;;;35.30;28.33;;;;;;;;;;5060141;28;20514;-63
2023/10/09 13:39:24;;;;;;;74.07;67.80;;;;;;;;;;5055242;28;20498;-64
2023/10/09 13:41:57;;;;;;;36.30;32.63;;;;;;;;;;5058609;28;20433;-64
2023/10/09 13:44:26;;;;;;;29.13;25.83;;;;;;;;;;5056339;28;20432;-64
2023/10/09 13:46:55;;;;;;;62.27;57.43;;;;;;;;;;5060072;28;20421;-64
2023/10/09 13:49:23;;;;;;;34.13;30.73;;;;;;;;;;5062075;28;20415;-64
2023/10/09 13:51:50;;;;;;;68.70;63.50;;;;;;;;;;5059915;28;20415;-63
2023/10/09 13:54:21;;;;;;;28.42;21.25;;;;;;;;;;5060894;28;20892;-64
2023/10/09 13:56:52;;;;;;;42.63;38.63;;;;;;;;;;5055592;28;20479;-64
2023/10/09 13:59:20;;;;;;;35.60;32.47;;;;;;;;;;5060136;28;20414;-64
2023/10/09 14:01:48;;;;;;;48.33;44.20;;;;;;;;;;5061995;28;20450;-64
2023/10/09 14:04:18;;;;;;;30.88;27.88;;;;;;;;;;5059347;28;20413;-64
2023/10/09 14:06:47;;;;;;;39.03;35.13;;;;;;;;;;5059045;28;20444;-64
2023/10/09 14:09:27;;;;;;;43.38;39.05;;;;;;;;;;5054081;28;20421;-64
2023/10/09 14:12:05;;;;;;;88.47;82.13;;;;;;;;;;5048732;28;20420;-64
2023/10/09 14:14:32;;;;;;;85.03;78.78;;;;;;;;;;5054178;28;20512;-63
2023/10/09 14:16:59;;;;;;;50.35;46.20;;;;;;;;;;5054304;28;20468;-64
2023/10/09 14:19:33;;;;;;;61.75;57.05;;;;;;;;;;5055233;28;20890;-63
2023/10/09 14:22:05;;;;;;;77.63;71.60;;;;;;;;;;5054359;28;20514;-64
2023/10/09 14:24:32;;;;;;;82.97;76.80;;;;;;;;;;5058047;28;20403;-66
2023/10/09 14:27:03;;;;;;;30.90;27.77;;;;;;;;;;5054802;28;20465;-67
2023/10/09 14:29:30;;;;;;;33.83;30.23;;;;;;;;;;5060736;28;20408;-69
2023/10/09 14:32:00;;;;;;;27.65;21.42;;;;;;;;;;5056601;28;20412;-67
2023/10/09 14:34:32;;;;;;;28.25;23.25;;;;;;;;;;5061054;28;20411;-66
2023/10/09 14:37:00;;;;;;;29.95;27.05;;;;;;;;;;5059276;28;20783;-69
2023/10/09 14:39:27;;;;;;;39.60;35.35;;;;;;;;;;5062002;28;20539;-63
2023/10/09 14:41:57;;;;;;;53.45;48.72;;;;;;;;;;5059084;28;20556;-64
2023/10/09 14:44:24;;;;;;;45.83;41.67;;;;;;;;;;5054789;28;20787;-64
2023/10/09 14:46:51;;;;;;;38.47;34.38;;;;;;;;;;5062526;28;20413;-63
2023/10/09 14:49:21;;;;;;;54.15;49.25;;;;;;;;;;5067468;28;20414;-64
2023/10/09 14:51:50;;;;;;;34.90;31.07;;;;;;;;;;5059663;28;20414;-64
2023/10/09 14:54:17;;;;;;;67.07;61.85;;;;;;;;;;5059273;28;20443;-64
2023/10/09 14:56:45;;;;;;;66.68;61.35;;;;;;;;;;5064730;28;20485;-64
2023/10/09 14:59:12;;;;;;;37.63;34.03;;;;;;;;;;5061481;28;20511;-64
2023/10/09 15:01:39;;;;;;;63.72;58.75;;;;;;;;;;5064897;28;20461;-63
2023/10/09 15:04:07;;;;;;;56.22;51.70;;;;;;;;;;5061866;28;20413;-64
2023/10/09 15:06:35;;;;;;;41.88;37.58;;;;;;;;;;5062134;28;20407;-64
2023/10/09 15:09:09;;;;;;;56.78;52.08;;;;;;;;;;5056711;28;20424;-64
2023/10/09 15:11:38;;;;;;;48.97;44.30;;;;;;;;;;5060857;28;20448;-64
2023/10/09 15:14:06;;;;;;;52.72;48.22;;;;;;;;;;5053215;28;20925;-64
2023/10/09 15:16:33;;;;;;;25.63;22.83;;;;;;;;;;5058837;28;20438;-65
2023/10/09 15:19:02;;;;;;;36.60;33.10;;;;;;;;;;5057460;28;20430;-64
2023/10/09 15:21:32;;;;;;;20.63;13.95;;;;;;;;;;5062566;28;20443;-63
2023/10/09 15:23:59;;;;;;;20.10;13.52;;;;;;;;;;5059957;28;20816;-65
2023/10/09 15:26:32;;;;;;;29.98;21.17;;;;;;;;;;5060369;28;20459;-66
2023/10/09 15:29:03;;;;;;;30.08;23.67;;;;;;;;;;5059331;28;20923;-64
2023/10/09 15:31:32;;;;;;;41.35;37.25;;;;;;;;;;5056069;28;20413;-64
2023/10/09 15:33:59;;;;;;;47.97;43.67;;;;;;;;;;5068408;28;20430;-65
2023/10/09 15:36:28;;;;;;;30.95;17.45;;;;;;;;;;5063928;28;20427;-63
2023/10/09 15:38:59;;;;;;;24.10;15.48;;;;;;;;;;5065176;28;20422;-63
2023/10/09 15:41:29;;;;;;;27.37;14.87;;;;;;;;;;5056595;28;20937;-65